JST507 YSSY-YMML
Flight info
| Callsign | JST507 |
|---|---|
| Flight time | 1h 6m |
| Altitude | 36000 |
| Route | WOL H65 LEECE Q29 ML |
| Aircraft | A320/M-SDE3FGHIRWY/LB1 |
Departure
| Time | 2026-04-30 07:15 |
|---|---|
| Airport | Sydney Kingsford Smith International Airport (YSSY) |
Arrival
| Time | 2026-04-30 08:22 |
|---|---|
| Airport | Melbourne Airport (YMML) |
| Time | Latitude | Longitude | Altitude | Speed | Heading |
|---|---|---|---|---|---|
| 2026-04-30 06:05 | -33.93563 | 151.17760 | 30 ft | 0 kts | 281° |
| 2026-04-30 06:59 | -33.93566 | 151.17777 | 30 ft | 4 kts | 283° |
| 2026-04-30 07:00 | -33.93572 | 151.17809 | 30 ft | 4 kts | 274° |
| 2026-04-30 07:00 | -33.93570 | 151.17829 | 30 ft | 3 kts | 192° |
| 2026-04-30 07:00 | -33.93585 | 151.17826 | 30 ft | 4 kts | 190° |
| 2026-04-30 07:00 | -33.93610 | 151.17820 | 30 ft | 2 kts | 191° |
| 2026-04-30 07:01 | -33.93611 | 151.17820 | 30 ft | 1 kts | 191° |
| 2026-04-30 07:04 | -33.93613 | 151.17821 | 30 ft | 0 kts | 179° |
| 2026-04-30 07:04 | -33.93615 | 151.17821 | 30 ft | 1 kts | 176° |
| 2026-04-30 07:05 | -33.93670 | 151.17813 | 30 ft | 7 kts | 194° |
| 2026-04-30 07:05 | -33.93726 | 151.17792 | 30 ft | 10 kts | 201° |
| 2026-04-30 07:05 | -33.93800 | 151.17766 | 30 ft | 12 kts | 193° |
| 2026-04-30 07:06 | -33.93866 | 151.17764 | 30 ft | 9 kts | 169° |
| 2026-04-30 07:06 | -33.93939 | 151.17786 | 29 ft | 12 kts | 166° |
| 2026-04-30 07:06 | -33.94033 | 151.17814 | 29 ft | 15 kts | 166° |
| 2026-04-30 07:06 | -33.94146 | 151.17844 | 30 ft | 17 kts | 171° |
| 2026-04-30 07:07 | -33.94271 | 151.17875 | 30 ft | 20 kts | 168° |
| 2026-04-30 07:07 | -33.94413 | 151.17912 | 30 ft | 22 kts | 173° |
| 2026-04-30 07:07 | -33.94561 | 151.17894 | 30 ft | 23 kts | 167° |
| 2026-04-30 07:07 | -33.94724 | 151.17934 | 30 ft | 25 kts | 167° |
| 2026-04-30 07:08 | -33.94905 | 151.17981 | 30 ft | 28 kts | 167° |
| 2026-04-30 07:08 | -33.95081 | 151.18037 | 30 ft | 21 kts | 139° |
| 2026-04-30 07:08 | -33.95081 | 151.18206 | 30 ft | 22 kts | 79° |
| 2026-04-30 07:08 | -33.95052 | 151.18373 | 30 ft | 15 kts | 78° |
| 2026-04-30 07:09 | -33.95044 | 151.18417 | 30 ft | 0 kts | 78° |
| 2026-04-30 07:09 | -33.95044 | 151.18418 | 30 ft | 1 kts | 78° |
| 2026-04-30 07:09 | -33.95052 | 151.18488 | 30 ft | 18 kts | 126° |
| 2026-04-30 07:09 | -33.95188 | 151.18632 | 30 ft | 33 kts | 141° |
| 2026-04-30 07:10 | -33.95395 | 151.18739 | 30 ft | 33 kts | 167° |
| 2026-04-30 07:10 | -33.95610 | 151.18796 | 30 ft | 30 kts | 168° |
| 2026-04-30 07:10 | -33.95814 | 151.18849 | 30 ft | 31 kts | 167° |
| 2026-04-30 07:10 | -33.96029 | 151.18906 | 30 ft | 33 kts | 168° |
| 2026-04-30 07:11 | -33.96259 | 151.18965 | 30 ft | 35 kts | 167° |
| 2026-04-30 07:11 | -33.96494 | 151.19025 | 30 ft | 33 kts | 168° |
| 2026-04-30 07:11 | -33.96720 | 151.19073 | 30 ft | 33 kts | 183° |
| 2026-04-30 07:11 | -33.96934 | 151.19095 | 30 ft | 25 kts | 168° |
| 2026-04-30 07:12 | -33.97054 | 151.19125 | 30 ft | 10 kts | 168° |
| 2026-04-30 07:12 | -33.97109 | 151.19146 | 30 ft | 9 kts | 144° |
| 2026-04-30 07:12 | -33.97121 | 151.19223 | 30 ft | 11 kts | 77° |
| 2026-04-30 07:12 | -33.97114 | 151.19264 | 29 ft | 0 kts | 77° |
| 2026-04-30 07:13 | -33.97113 | 151.19265 | 29 ft | 2 kts | 77° |
| 2026-04-30 07:13 | -33.97105 | 151.19306 | 27 ft | 9 kts | 76° |
| 2026-04-30 07:13 | -33.97084 | 151.19376 | 26 ft | 7 kts | 40° |
| 2026-04-30 07:13 | -33.97052 | 151.19370 | 25 ft | 0 kts | 350° |
| 2026-04-30 07:15 | -33.96984 | 151.19355 | 24 ft | 39 kts | 350° |
| 2026-04-30 07:15 | -33.96468 | 151.19221 | 25 ft | 109 kts | 347° |
| 2026-04-30 07:15 | -33.95552 | 151.18980 | 39 ft | 158 kts | 346° |
| 2026-04-30 07:15 | -33.94482 | 151.18698 | 624 ft | 157 kts | 354° |
| 2026-04-30 07:16 | -33.93436 | 151.18976 | 1222 ft | 153 kts | 37° |
| 2026-04-30 07:16 | -33.92748 | 151.19928 | 1864 ft | 153 kts | 63° |
| 2026-04-30 07:16 | -33.92617 | 151.21262 | 2214 ft | 175 kts | 104° |
| 2026-04-30 07:16 | -33.93165 | 151.22616 | 2775 ft | 183 kts | 114° |
| 2026-04-30 07:17 | -33.93717 | 151.24004 | 3387 ft | 185 kts | 102° |
| 2026-04-30 07:17 | -33.93821 | 151.25533 | 4072 ft | 183 kts | 86° |
| 2026-04-30 07:17 | -33.93733 | 151.28707 | 5160 ft | 210 kts | 87° |
| 2026-04-30 07:18 | -33.93681 | 151.30558 | 5556 ft | 234 kts | 86° |
| 2026-04-30 07:18 | -33.93621 | 151.32616 | 6004 ft | 257 kts | 87° |
| 2026-04-30 07:18 | -33.93557 | 151.34809 | 6779 ft | 266 kts | 87° |
| 2026-04-30 07:18 | -33.93493 | 151.37047 | 7668 ft | 269 kts | 88° |
| 2026-04-30 07:19 | -33.93429 | 151.39312 | 8566 ft | 272 kts | 87° |
| 2026-04-30 07:19 | -33.93361 | 151.41615 | 9402 ft | 278 kts | 86° |
| 2026-04-30 07:19 | -33.93290 | 151.43963 | 10226 ft | 284 kts | 87° |
| 2026-04-30 07:19 | -33.93218 | 151.46416 | 10652 ft | 303 kts | 86° |
| 2026-04-30 07:20 | -33.93173 | 151.49046 | 11019 ft | 322 kts | 92° |
| 2026-04-30 07:20 | -33.93635 | 151.51715 | 11625 ft | 331 kts | 110° |
| 2026-04-30 07:20 | -33.94791 | 151.54136 | 12306 ft | 339 kts | 129° |
| 2026-04-30 07:20 | -33.96618 | 151.55952 | 13018 ft | 345 kts | 150° |
| 2026-04-30 07:21 | -33.98912 | 151.56856 | 13700 ft | 352 kts | 174° |
| 2026-04-30 07:21 | -34.01352 | 151.56643 | 14402 ft | 355 kts | 196° |
| 2026-04-30 07:21 | -34.03554 | 151.55328 | 15056 ft | 356 kts | 219° |
| 2026-04-30 07:21 | -34.05253 | 151.53205 | 15706 ft | 358 kts | 230° |
| 2026-04-30 07:22 | -34.08468 | 151.48532 | 16993 ft | 365 kts | 230° |
| 2026-04-30 07:22 | -34.10089 | 151.46157 | 17606 ft | 369 kts | 230° |
| 2026-04-30 07:22 | -34.11731 | 151.43755 | 18248 ft | 373 kts | 230° |
| 2026-04-30 07:23 | -34.13393 | 151.41332 | 18846 ft | 377 kts | 230° |
| 2026-04-30 07:23 | -34.15074 | 151.38886 | 19434 ft | 380 kts | 229° |
| 2026-04-30 07:23 | -34.16767 | 151.36425 | 20030 ft | 382 kts | 229° |
| 2026-04-30 07:23 | -34.18469 | 151.33944 | 20644 ft | 385 kts | 229° |
| 2026-04-30 07:24 | -34.20185 | 151.31443 | 21244 ft | 387 kts | 229° |
| 2026-04-30 07:24 | -34.21912 | 151.28930 | 21828 ft | 390 kts | 229° |
| 2026-04-30 07:24 | -34.23063 | 151.27253 | 22203 ft | 392 kts | 229° |
| 2026-04-30 07:24 | -34.24806 | 151.24707 | 22766 ft | 395 kts | 230° |
| 2026-04-30 07:25 | -34.26564 | 151.22135 | 23332 ft | 398 kts | 229° |
| 2026-04-30 07:25 | -34.28935 | 151.18666 | 24079 ft | 402 kts | 230° |
| 2026-04-30 07:25 | -34.30119 | 151.16934 | 24396 ft | 404 kts | 230° |
| 2026-04-30 07:25 | -34.31916 | 151.14298 | 24895 ft | 407 kts | 229° |
| 2026-04-30 07:26 | -34.33719 | 151.11652 | 25381 ft | 409 kts | 230° |
| 2026-04-30 07:26 | -34.35535 | 151.08987 | 25844 ft | 412 kts | 230° |
| 2026-04-30 07:26 | -34.37364 | 151.06306 | 26302 ft | 414 kts | 229° |
| 2026-04-30 07:26 | -34.39202 | 151.03605 | 26749 ft | 417 kts | 230° |
| 2026-04-30 07:27 | -34.41044 | 151.00888 | 27195 ft | 419 kts | 229° |
| 2026-04-30 07:27 | -34.42900 | 150.98152 | 27628 ft | 421 kts | 230° |
| 2026-04-30 07:27 | -34.44764 | 150.95405 | 28049 ft | 423 kts | 229° |
| 2026-04-30 07:27 | -34.46643 | 150.92642 | 28463 ft | 426 kts | 229° |
| 2026-04-30 07:28 | -34.48530 | 150.89867 | 28870 ft | 428 kts | 229° |
| 2026-04-30 07:28 | -34.50426 | 150.87071 | 29267 ft | 431 kts | 229° |
| 2026-04-30 07:28 | -34.52332 | 150.84257 | 29664 ft | 433 kts | 229° |
| 2026-04-30 07:28 | -34.54249 | 150.81420 | 30052 ft | 436 kts | 229° |
| 2026-04-30 07:29 | -34.56169 | 150.78561 | 30443 ft | 438 kts | 230° |
| 2026-04-30 07:29 | -34.58040 | 150.75630 | 30773 ft | 441 kts | 232° |
| 2026-04-30 07:29 | -34.59865 | 150.72628 | 31104 ft | 443 kts | 233° |
| 2026-04-30 07:29 | -34.61665 | 150.69581 | 31434 ft | 445 kts | 233° |
| 2026-04-30 07:30 | -34.65250 | 150.63460 | 32087 ft | 449 kts | 233° |
| 2026-04-30 07:30 | -34.67069 | 150.60390 | 32543 ft | 447 kts | 232° |
| 2026-04-30 07:30 | -34.68891 | 150.57335 | 32999 ft | 446 kts | 232° |
| 2026-04-30 07:31 | -34.70716 | 150.54294 | 33469 ft | 445 kts | 232° |
| 2026-04-30 07:31 | -34.72541 | 150.51263 | 33937 ft | 443 kts | 232° |
| 2026-04-30 07:31 | -34.74361 | 150.48244 | 34422 ft | 442 kts | 232° |
| 2026-04-30 07:31 | -34.76172 | 150.45234 | 34824 ft | 440 kts | 233° |
| 2026-04-30 07:32 | -34.77982 | 150.42218 | 35081 ft | 443 kts | 233° |
| 2026-04-30 07:32 | -34.79807 | 150.39168 | 35195 ft | 449 kts | 233° |
| 2026-04-30 07:32 | -34.81650 | 150.36082 | 35317 ft | 453 kts | 233° |
| 2026-04-30 07:32 | -34.83509 | 150.32961 | 35438 ft | 457 kts | 233° |
| 2026-04-30 07:33 | -34.85381 | 150.29812 | 35558 ft | 460 kts | 233° |
| 2026-04-30 07:33 | -34.87265 | 150.26645 | 35681 ft | 463 kts | 233° |
| 2026-04-30 07:33 | -34.89136 | 150.23499 | 35800 ft | 465 kts | 233° |
| 2026-04-30 07:33 | -34.91036 | 150.20309 | 35954 ft | 465 kts | 233° |
| 2026-04-30 07:34 | -34.92930 | 150.17123 | 36143 ft | 465 kts | 234° |
| 2026-04-30 07:34 | -34.94826 | 150.13932 | 36334 ft | 464 kts | 234° |
| 2026-04-30 07:34 | -34.96722 | 150.10738 | 36414 ft | 464 kts | 234° |
| 2026-04-30 07:35 | -35.00500 | 150.04372 | 36416 ft | 463 kts | 234° |
| 2026-04-30 07:35 | -35.04220 | 149.98079 | 36415 ft | 463 kts | 234° |
| 2026-04-30 07:36 | -35.08022 | 149.91624 | 36415 ft | 463 kts | 234° |
| 2026-04-30 07:36 | -35.11778 | 149.85243 | 36415 ft | 462 kts | 234° |
| 2026-04-30 07:37 | -35.15532 | 149.78865 | 36427 ft | 463 kts | 234° |
| 2026-04-30 07:37 | -35.19297 | 149.72474 | 36431 ft | 463 kts | 234° |
| 2026-04-30 07:38 | -35.23028 | 149.66112 | 36430 ft | 463 kts | 234° |
| 2026-04-30 07:38 | -35.26776 | 149.59699 | 36421 ft | 463 kts | 234° |
| 2026-04-30 07:39 | -35.30518 | 149.53286 | 36433 ft | 463 kts | 234° |
| 2026-04-30 07:39 | -35.34261 | 149.46867 | 36431 ft | 463 kts | 234° |
| 2026-04-30 07:40 | -35.38005 | 149.40435 | 36434 ft | 463 kts | 234° |
| 2026-04-30 07:40 | -35.41737 | 149.34004 | 36437 ft | 463 kts | 235° |
| 2026-04-30 07:41 | -35.45466 | 149.27558 | 36438 ft | 463 kts | 235° |
| 2026-04-30 07:41 | -35.49190 | 149.21110 | 36437 ft | 463 kts | 235° |
| 2026-04-30 07:42 | -35.52915 | 149.14661 | 36433 ft | 463 kts | 235° |
| 2026-04-30 07:42 | -35.56635 | 149.08212 | 36447 ft | 463 kts | 235° |
| 2026-04-30 07:43 | -35.60355 | 149.01756 | 36449 ft | 463 kts | 235° |
| 2026-04-30 07:43 | -35.64067 | 148.95293 | 36448 ft | 462 kts | 235° |
| 2026-04-30 07:44 | -35.67762 | 148.88830 | 36452 ft | 462 kts | 236° |
| 2026-04-30 07:44 | -35.71456 | 148.82360 | 36456 ft | 462 kts | 236° |
| 2026-04-30 07:45 | -35.75159 | 148.75886 | 36455 ft | 462 kts | 236° |
| 2026-04-30 07:45 | -35.78852 | 148.69416 | 36457 ft | 462 kts | 236° |
| 2026-04-30 07:46 | -35.82507 | 148.62976 | 36454 ft | 461 kts | 236° |
| 2026-04-30 07:46 | -35.86209 | 148.56453 | 36464 ft | 461 kts | 236° |
| 2026-04-30 07:47 | -35.89864 | 148.50012 | 36452 ft | 461 kts | 236° |
| 2026-04-30 07:47 | -35.93528 | 148.43519 | 36443 ft | 461 kts | 236° |
| 2026-04-30 07:48 | -35.97177 | 148.37019 | 36452 ft | 460 kts | 237° |
| 2026-04-30 07:48 | -36.00818 | 148.30521 | 36441 ft | 460 kts | 237° |
| 2026-04-30 07:49 | -36.04460 | 148.24017 | 36431 ft | 460 kts | 237° |
| 2026-04-30 07:49 | -36.08105 | 148.17511 | 36432 ft | 460 kts | 237° |
| 2026-04-30 07:50 | -36.11741 | 148.11005 | 36424 ft | 459 kts | 237° |
| 2026-04-30 07:50 | -36.15373 | 148.04502 | 36424 ft | 459 kts | 237° |
| 2026-04-30 07:51 | -36.19012 | 147.97997 | 36412 ft | 459 kts | 237° |
| 2026-04-30 07:51 | -36.22640 | 147.91486 | 36405 ft | 459 kts | 237° |
| 2026-04-30 07:52 | -36.26260 | 147.84960 | 36409 ft | 459 kts | 237° |
| 2026-04-30 07:52 | -36.29863 | 147.78483 | 36410 ft | 459 kts | 237° |
| 2026-04-30 07:53 | -36.33504 | 147.71907 | 36412 ft | 459 kts | 237° |
| 2026-04-30 07:53 | -36.37086 | 147.65416 | 36399 ft | 459 kts | 237° |
| 2026-04-30 07:54 | -36.40693 | 147.58871 | 36399 ft | 460 kts | 238° |
| 2026-04-30 07:54 | -36.44305 | 147.52308 | 36400 ft | 460 kts | 238° |
| 2026-04-30 07:55 | -36.47913 | 147.45735 | 36399 ft | 461 kts | 238° |
| 2026-04-30 07:55 | -36.51521 | 147.39150 | 36384 ft | 460 kts | 238° |
| 2026-04-30 07:56 | -36.55118 | 147.32554 | 36383 ft | 461 kts | 238° |
| 2026-04-30 07:56 | -36.58724 | 147.25952 | 36377 ft | 461 kts | 238° |
| 2026-04-30 07:57 | -36.62299 | 147.19390 | 36165 ft | 456 kts | 238° |
| 2026-04-30 07:57 | -36.64079 | 147.16120 | 35342 ft | 456 kts | 238° |
| 2026-04-30 07:57 | -36.65858 | 147.12849 | 34904 ft | 454 kts | 238° |
| 2026-04-30 07:57 | -36.67647 | 147.09555 | 34682 ft | 464 kts | 238° |
| 2026-04-30 07:58 | -36.69461 | 147.06202 | 34446 ft | 469 kts | 238° |
| 2026-04-30 07:58 | -36.71284 | 147.02824 | 34189 ft | 471 kts | 238° |
| 2026-04-30 07:58 | -36.73114 | 146.99434 | 33917 ft | 473 kts | 238° |
| 2026-04-30 07:58 | -36.74953 | 146.96029 | 33653 ft | 474 kts | 238° |
| 2026-04-30 07:59 | -36.76796 | 146.92619 | 33385 ft | 475 kts | 239° |
| 2026-04-30 07:59 | -36.78645 | 146.89197 | 33123 ft | 476 kts | 239° |
| 2026-04-30 07:59 | -36.80494 | 146.85772 | 32875 ft | 476 kts | 239° |
| 2026-04-30 08:00 | -36.86019 | 146.75486 | 33141 ft | 474 kts | 239° |
| 2026-04-30 08:00 | -36.87854 | 146.72066 | 33275 ft | 474 kts | 239° |
| 2026-04-30 08:00 | -36.89691 | 146.68647 | 33242 ft | 473 kts | 239° |
| 2026-04-30 08:01 | -36.91514 | 146.65254 | 32537 ft | 469 kts | 239° |
| 2026-04-30 08:01 | -36.93330 | 146.61870 | 32205 ft | 471 kts | 240° |
| 2026-04-30 08:01 | -36.95150 | 146.58462 | 31703 ft | 471 kts | 240° |
| 2026-04-30 08:01 | -36.96968 | 146.55055 | 31194 ft | 470 kts | 240° |
| 2026-04-30 08:02 | -37.00580 | 146.48277 | 30145 ft | 466 kts | 240° |
| 2026-04-30 08:02 | -37.02371 | 146.44912 | 29665 ft | 463 kts | 240° |
| 2026-04-30 08:03 | -37.05890 | 146.38286 | 28754 ft | 457 kts | 240° |
| 2026-04-30 08:03 | -37.09382 | 146.31705 | 27808 ft | 450 kts | 240° |
| 2026-04-30 08:03 | -37.11105 | 146.28458 | 27331 ft | 445 kts | 240° |
| 2026-04-30 08:04 | -37.12811 | 146.25242 | 26854 ft | 442 kts | 240° |
| 2026-04-30 08:04 | -37.14505 | 146.22041 | 26375 ft | 439 kts | 240° |
| 2026-04-30 08:04 | -37.16184 | 146.18864 | 25875 ft | 436 kts | 240° |
| 2026-04-30 08:04 | -37.17849 | 146.15708 | 25383 ft | 433 kts | 240° |
| 2026-04-30 08:05 | -37.19498 | 146.12572 | 24878 ft | 429 kts | 241° |
| 2026-04-30 08:05 | -37.21137 | 146.09457 | 24369 ft | 426 kts | 241° |
| 2026-04-30 08:05 | -37.22761 | 146.06369 | 23850 ft | 423 kts | 241° |
| 2026-04-30 08:05 | -37.24376 | 146.03298 | 23311 ft | 421 kts | 241° |
| 2026-04-30 08:06 | -37.25982 | 146.00237 | 22804 ft | 418 kts | 241° |
| 2026-04-30 08:06 | -37.27575 | 145.97199 | 22293 ft | 415 kts | 241° |
| 2026-04-30 08:06 | -37.29160 | 145.94178 | 21802 ft | 412 kts | 241° |
| 2026-04-30 08:06 | -37.30730 | 145.91185 | 21316 ft | 408 kts | 241° |
| 2026-04-30 08:07 | -37.32289 | 145.88217 | 20811 ft | 405 kts | 241° |
| 2026-04-30 08:07 | -37.33818 | 145.85312 | 20328 ft | 403 kts | 241° |
| 2026-04-30 08:07 | -37.35354 | 145.82384 | 19840 ft | 400 kts | 241° |
| 2026-04-30 08:07 | -37.36877 | 145.79473 | 19360 ft | 397 kts | 241° |
| 2026-04-30 08:08 | -37.38392 | 145.76578 | 18872 ft | 395 kts | 241° |
| 2026-04-30 08:08 | -37.39943 | 145.73599 | 18343 ft | 425 kts | 240° |
| 2026-04-30 08:08 | -37.41598 | 145.70408 | 17799 ft | 442 kts | 240° |
| 2026-04-30 08:08 | -37.43287 | 145.67165 | 17255 ft | 443 kts | 240° |
| 2026-04-30 08:09 | -37.44978 | 145.63939 | 16721 ft | 441 kts | 239° |
| 2026-04-30 08:09 | -37.46706 | 145.60767 | 16189 ft | 438 kts | 238° |
| 2026-04-30 08:09 | -37.48483 | 145.57669 | 15664 ft | 435 kts | 236° |
| 2026-04-30 08:09 | -37.50287 | 145.54629 | 15146 ft | 432 kts | 236° |
| 2026-04-30 08:10 | -37.52092 | 145.51617 | 14623 ft | 428 kts | 236° |
| 2026-04-30 08:10 | -37.53297 | 145.49602 | 14273 ft | 426 kts | 236° |
| 2026-04-30 08:10 | -37.55040 | 145.46661 | 13725 ft | 422 kts | 236° |
| 2026-04-30 08:10 | -37.56765 | 145.43715 | 13302 ft | 411 kts | 236° |
| 2026-04-30 08:11 | -37.58944 | 145.39970 | 13072 ft | 376 kts | 237° |
| 2026-04-30 08:11 | -37.59937 | 145.38258 | 12892 ft | 355 kts | 237° |
| 2026-04-30 08:11 | -37.61332 | 145.35846 | 12725 ft | 326 kts | 237° |
| 2026-04-30 08:11 | -37.63022 | 145.32914 | 12550 ft | 293 kts | 238° |
| 2026-04-30 08:12 | -37.63797 | 145.31567 | 12390 ft | 282 kts | 238° |
| 2026-04-30 08:12 | -37.65020 | 145.29605 | 11537 ft | 291 kts | 226° |
| 2026-04-30 08:12 | -37.66797 | 145.28318 | 11050 ft | 301 kts | 199° |
| 2026-04-30 08:12 | -37.68887 | 145.28011 | 10701 ft | 304 kts | 184° |
| 2026-04-30 08:13 | -37.71005 | 145.28002 | 10355 ft | 304 kts | 182° |
| 2026-04-30 08:13 | -37.73118 | 145.28013 | 10014 ft | 302 kts | 184° |
| 2026-04-30 08:13 | -37.75145 | 145.27504 | 9655 ft | 295 kts | 206° |
| 2026-04-30 08:13 | -37.76844 | 145.26147 | 9311 ft | 286 kts | 228° |
| 2026-04-30 08:14 | -37.77989 | 145.24190 | 9126 ft | 272 kts | 248° |
| 2026-04-30 08:14 | -37.78515 | 145.21979 | 8853 ft | 263 kts | 268° |
| 2026-04-30 08:14 | -37.78429 | 145.19736 | 8720 ft | 250 kts | 285° |
| 2026-04-30 08:14 | -37.78023 | 145.17639 | 8593 ft | 241 kts | 287° |
| 2026-04-30 08:15 | -37.77634 | 145.15598 | 8371 ft | 237 kts | 284° |
| 2026-04-30 08:15 | -37.77650 | 145.13520 | 8089 ft | 241 kts | 259° |
| 2026-04-30 08:15 | -37.78211 | 145.11511 | 7783 ft | 243 kts | 253° |
| 2026-04-30 08:15 | -37.78804 | 145.09517 | 7480 ft | 242 kts | 253° |
| 2026-04-30 08:16 | -37.79397 | 145.07528 | 7193 ft | 241 kts | 254° |
| 2026-04-30 08:16 | -37.79986 | 145.05544 | 6895 ft | 241 kts | 254° |
| 2026-04-30 08:16 | -37.80574 | 145.03563 | 6609 ft | 240 kts | 254° |
| 2026-04-30 08:16 | -37.81162 | 145.01580 | 6161 ft | 244 kts | 255° |
| 2026-04-30 08:17 | -37.81603 | 144.99506 | 5786 ft | 244 kts | 262° |
| 2026-04-30 08:17 | -37.81966 | 144.97413 | 5476 ft | 243 kts | 262° |
| 2026-04-30 08:17 | -37.82333 | 144.95329 | 5170 ft | 243 kts | 262° |
| 2026-04-30 08:17 | -37.82681 | 144.93239 | 4847 ft | 242 kts | 264° |
| 2026-04-30 08:18 | -37.82956 | 144.91188 | 4420 ft | 238 kts | 265° |
| 2026-04-30 08:18 | -37.83170 | 144.89091 | 3855 ft | 234 kts | 276° |
| 2026-04-30 08:18 | -37.82677 | 144.87312 | 3505 ft | 209 kts | 316° |
| 2026-04-30 08:18 | -37.81527 | 144.86526 | 3337 ft | 177 kts | 349° |
| 2026-04-30 08:19 | -37.80341 | 144.86290 | 2820 ft | 171 kts | 352° |
| 2026-04-30 08:19 | -37.79166 | 144.86072 | 2559 ft | 172 kts | 352° |
| 2026-04-30 08:19 | -37.77978 | 144.85853 | 2318 ft | 173 kts | 352° |
| 2026-04-30 08:19 | -37.76794 | 144.85631 | 2073 ft | 171 kts | 352° |
| 2026-04-30 08:20 | -37.75612 | 144.85411 | 1817 ft | 172 kts | 353° |
| 2026-04-30 08:20 | -37.74490 | 144.85202 | 1587 ft | 152 kts | 353° |
| 2026-04-30 08:20 | -37.73502 | 144.85014 | 1374 ft | 138 kts | 353° |
| 2026-04-30 08:20 | -37.72560 | 144.84838 | 1137 ft | 134 kts | 353° |
| 2026-04-30 08:21 | -37.71641 | 144.84660 | 991 ft | 133 kts | 352° |
| 2026-04-30 08:21 | -37.70728 | 144.84486 | 807 ft | 132 kts | 354° |
| 2026-04-30 08:21 | -37.69832 | 144.84321 | 601 ft | 133 kts | 353° |
| 2026-04-30 08:21 | -37.68914 | 144.84153 | 460 ft | 135 kts | 354° |
| 2026-04-30 08:22 | -37.67993 | 144.83987 | 360 ft | 129 kts | 354° |
| 2026-04-30 08:22 | -37.67294 | 144.83853 | 375 ft | 62 kts | 352° |
| 2026-04-30 08:22 | -37.67108 | 144.83826 | 383 ft | 12 kts | 1° |
| 2026-04-30 08:22 | -37.66995 | 144.83844 | 386 ft | 19 kts | 12° |
| 2026-04-30 08:23 | -37.66876 | 144.83895 | 390 ft | 14 kts | 21° |
| 2026-04-30 08:23 | -37.66781 | 144.83942 | 393 ft | 15 kts | 22° |
| 2026-04-30 08:23 | -37.66714 | 144.84014 | 393 ft | 11 kts | 76° |
| 2026-04-30 08:23 | -37.66733 | 144.84131 | 393 ft | 15 kts | 117° |
| 2026-04-30 08:24 | -37.66838 | 144.84202 | 391 ft | 20 kts | 171° |
| 2026-04-30 08:24 | -37.66997 | 144.84231 | 386 ft | 26 kts | 171° |
| 2026-04-30 08:24 | -37.67188 | 144.84268 | 382 ft | 30 kts | 171° |
| 2026-04-30 08:24 | -37.67372 | 144.84299 | 378 ft | 27 kts | 172° |
| 2026-04-30 08:25 | -37.67559 | 144.84335 | 374 ft | 27 kts | 171° |
| 2026-04-30 08:25 | -37.67743 | 144.84368 | 367 ft | 28 kts | 171° |
| 2026-04-30 08:25 | -37.67825 | 144.84482 | 368 ft | 19 kts | 71° |
| 2026-04-30 08:25 | -37.67766 | 144.84590 | 369 ft | 15 kts | 356° |
| 2026-04-30 08:26 | -37.67665 | 144.84571 | 373 ft | 15 kts | 351° |
| 2026-04-30 08:26 | -37.67562 | 144.84552 | 376 ft | 15 kts | 352° |
| 2026-04-30 08:26 | -37.67465 | 144.84573 | 380 ft | 15 kts | 50° |
| 2026-04-30 08:26 | -37.67422 | 144.84640 | 382 ft | 0 kts | 341° |
| 2026-04-30 08:27 | -37.67416 | 144.84641 | 382 ft | 4 kts | 359° |
| 2026-04-30 08:27 | -37.67372 | 144.84633 | 383 ft | 7 kts | 351° |
| 2026-04-30 08:27 | -37.67349 | 144.84629 | 383 ft | 0 kts | 351° |